Hagerstown, MD

5:37 AM EDT on July 28, 2016 (GMT -0400)
Hagerstown 1E - Pangborn Blvd. | | Change Station

Elev 537 ft 39.64 °N, 77.70 °W | Updated 2 minutes ago

Mostly Cloudy
Mostly Cloudy
74.9 °F
Feels Like 74 °F
N
1.0
Wind Variable Wind from SSW
Gusts 2.0 mph

Today
High -- | Low -- °F
--% Chance of Precip.
Yesterday
High -- | Low -- °F
Precip. -- in
Pressure 29.93 in
Visibility 10.0 miles
Clouds Mostly Cloudy 7000 ft
Heat Index 74 °F
Dew Point 71 °F
Humidity 87%
Rainfall 0.00 in
Snow Depth Not available.
6:06 AM 8:27 PM
Waning Crescent, 34% visible
METAR KHGR 280853Z AUTO 13003KT 10SM BKN070 24/21 A2993 RMK AO2 SLP135 T02390206 58003
Pressure 29.93 in
Visibility 10.0 miles
Clouds Mostly Cloudy 7000 ft
Heat Index 74 °F
Dew Point 71 °F
Humidity 87%
Rainfall 0.00 in
Snow Depth Not available.
6:06 AM 8:27 PM
Waning Crescent, 34% visible
METAR KHGR 280853Z AUTO 13003KT 10SM BKN070 24/21 A2993 RMK AO2 SLP135 T02390206 58003

10-Day Weather Forecast

Almanac

Astronomy

Jul. 28, 2016 Rise Set
Actual Time
Civil Twilight
Nautical Twilight
Astronomical Twilight
Moon
Length of Visible Light
Length of Day
Tomorrow will be .
, % of the Moon is Illuminated

Today's Extremes

State Highs State Lows

Community

WunderPhotos

Upload Photos

1,928,070 photos uploaded!

WunderBlog® & News

Nearby

Air Quality

  Air Quality AQ Index Pollutant
Not available.

Snow Depth

Station Depth Elevation

Earthquake Activity

City Distance Mag. Time & Date
Minimum magnitude displayed is 2.5.

Coastal Water Temperatures

Place Temperature

Stations

Nearby Weather Stations

Station Location Temp. Windchill Dew Point Humidity Wind Precip. Elev Updated Type
                   

Watches & Warnings

There are currently no watches in effect.